createdAt,value
2022-07-31T00:02:28.265Z,20.40
2022-07-31T00:05:01.321Z,20.40
2022-07-31T00:07:48.269Z,21.13
2022-07-31T00:10:28.268Z,20.02
2022-07-31T00:13:57.173Z,20.20
2022-07-31T00:16:29.284Z,19.10
2022-07-31T00:19:02.388Z,19.70
2022-07-31T00:21:49.336Z,19.25
2022-07-31T00:24:30.207Z,20.45
2022-07-31T00:27:17.394Z,19.52
2022-07-31T00:29:57.325Z,19.13
2022-07-31T00:32:44.323Z,20.17
2022-07-31T00:35:25.340Z,18.65
2022-07-31T00:38:27.977Z,19.40
2022-07-31T00:41:08.315Z,19.70
2022-07-31T00:43:55.346Z,19.75
2022-07-31T00:46:38.357Z,19.60
2022-07-31T00:49:27.383Z,20.35
2022-07-31T00:52:12.532Z,20.27
2022-07-31T00:54:59.492Z,19.98
2022-07-31T00:57:32.363Z,21.05
2022-07-31T01:00:20.332Z,20.10
2022-07-31T01:03:00.335Z,20.15
2022-07-31T01:05:54.307Z,20.10
2022-07-31T01:08:41.504Z,19.75
2022-07-31T01:11:24.474Z,18.63
2022-07-31T01:14:14.360Z,19.25
2022-07-31T01:16:53.396Z,19.70
2022-07-31T01:19:51.297Z,18.45
2022-07-31T01:23:08.388Z,19.42
2022-07-31T01:26:36.376Z,19.30
2022-07-31T01:29:42.317Z,21.35
2022-07-31T01:32:45.370Z,19.50
2022-07-31T01:35:48.312Z,19.30
2022-07-31T01:38:45.508Z,19.00
2022-07-31T01:41:21.570Z,17.33
2022-07-31T01:44:13.969Z,19.58
2022-07-31T01:46:57.368Z,19.55
2022-07-31T01:49:52.355Z,20.77
2022-07-31T01:52:40.463Z,19.35
2022-07-31T01:55:17.470Z,18.23
2022-07-31T01:58:05.475Z,19.83
2022-07-31T02:00:38.494Z,20.05
2022-07-31T02:03:44.314Z,19.48
2022-07-31T02:06:30.630Z,19.10
2022-07-31T02:09:26.397Z,18.70
2022-07-31T02:12:33.240Z,20.35
2022-07-31T02:15:23.360Z,20.75
2022-07-31T02:17:58.453Z,19.35
2022-07-31T02:20:49.350Z,19.38
2022-07-31T02:23:22.440Z,20.42
2022-07-31T02:26:10.353Z,18.65
2022-07-31T02:28:54.338Z,19.30
2022-07-31T02:31:43.375Z,19.10
2022-07-31T02:34:20.439Z,20.42
2022-07-31T02:37:17.363Z,19.15
2022-07-31T02:39:58.467Z,19.77
2022-07-31T02:42:54.415Z,19.23
2022-07-31T02:45:41.412Z,20.35
2022-07-31T02:48:15.477Z,19.10
2022-07-31T02:51:02.379Z,20.58
2022-07-31T02:53:44.378Z,20.40
2022-07-31T02:56:31.348Z,21.52
2022-07-31T02:59:12.354Z,20.60
2022-07-31T03:01:59.395Z,19.08
2022-07-31T03:04:32.460Z,20.23
2022-07-31T03:07:19.364Z,21.05
2022-07-31T03:09:52.515Z,18.92
2022-07-31T03:12:39.371Z,19.30
2022-07-31T03:15:17.457Z,18.40
2022-07-31T03:18:11.243Z,21.58
2022-07-31T03:20:46.816Z,20.15
2022-07-31T03:23:42.388Z,20.13
2022-07-31T03:26:15.455Z,20.50
2022-07-31T03:29:39.300Z,17.92
2022-07-31T03:32:16.385Z,19.80
2022-07-31T03:34:49.523Z,19.83
2022-07-31T03:37:36.383Z,20.45
2022-07-31T03:40:16.370Z,21.23
2022-07-31T03:43:03.399Z,19.00
2022-07-31T03:45:37.452Z,20.20
2022-07-31T03:48:24.401Z,18.95
2022-07-31T03:50:58.510Z,19.60
2022-07-31T03:53:46.445Z,20.23
2022-07-31T03:56:28.404Z,20.25
2022-07-31T03:59:16.460Z,21.15
2022-07-31T04:01:59.003Z,21.13
2022-07-31T04:04:45.391Z,19.27
2022-07-31T04:07:25.398Z,19.70
2022-07-31T04:10:20.408Z,19.20
2022-07-31T04:13:14.393Z,20.42
2022-07-31T04:16:01.412Z,19.90
2022-07-31T04:18:34.597Z,19.45
2022-07-31T04:21:21.411Z,20.83
2022-07-31T04:24:01.410Z,18.95
2022-07-31T04:26:55.423Z,19.45
2022-07-31T04:29:49.420Z,19.40
2022-07-31T04:32:36.406Z,18.40
2022-07-31T04:35:18.416Z,19.05
2022-07-31T04:38:12.420Z,19.83
2022-07-31T04:40:59.422Z,18.88
2022-07-31T04:43:39.396Z,19.40
2022-07-31T04:46:29.431Z,20.90
2022-07-31T04:49:02.554Z,19.38
2022-07-31T04:51:49.405Z,18.73
2022-07-31T04:54:29.425Z,18.63
2022-07-31T04:57:21.267Z,18.90
2022-07-31T05:00:20.439Z,19.08
2022-07-31T05:03:07.429Z,18.65
2022-07-31T05:05:42.812Z,19.42
2022-07-31T05:08:30.424Z,21.13
2022-07-31T05:11:28.441Z,17.08
2022-07-31T05:14:24.433Z,18.85
2022-07-31T05:17:18.417Z,19.48
2022-07-31T05:20:05.630Z,18.70
2022-07-31T05:22:38.698Z,20.35
2022-07-31T05:25:25.469Z,21.67
2022-07-31T05:27:58.524Z,19.20
2022-07-31T05:30:46.444Z,19.08
2022-07-31T05:33:19.554Z,19.05
2022-07-31T05:36:07.467Z,18.40
2022-07-31T05:38:40.542Z,20.77
2022-07-31T05:41:27.453Z,20.98
2022-07-31T05:44:00.604Z,21.00
2022-07-31T05:46:47.463Z,18.45
2022-07-31T05:49:22.364Z,18.52
2022-07-31T05:52:09.463Z,17.23
2022-07-31T05:54:42.529Z,17.90
2022-07-31T05:57:34.083Z,17.90
2022-07-31T06:00:15.486Z,20.58
2022-07-31T06:03:11.467Z,18.73
2022-07-31T06:05:58.472Z,20.50
2022-07-31T06:08:31.676Z,21.63
2022-07-31T06:11:18.484Z,21.60
2022-07-31T06:13:51.561Z,20.08
2022-07-31T06:16:38.470Z,19.48
2022-07-31T06:19:11.558Z,21.80
2022-07-31T06:21:58.470Z,20.20
2022-07-31T06:24:41.691Z,20.58
2022-07-31T06:27:37.495Z,20.70
2022-07-31T06:30:33.505Z,21.55
2022-07-31T06:33:37.700Z,20.08
2022-07-31T06:36:25.486Z,20.10
2022-07-31T06:39:05.509Z,21.55
2022-07-31T06:41:59.466Z,22.33
2022-07-31T06:44:46.617Z,21.77
2022-07-31T06:47:27.487Z,20.13
2022-07-31T06:50:21.496Z,18.65
2022-07-31T06:53:10.491Z,17.88
2022-07-31T06:55:46.606Z,19.60
2022-07-31T06:58:33.505Z,19.15
2022-07-31T07:01:13.525Z,20.02
2022-07-31T07:04:00.504Z,23.60
2022-07-31T07:06:33.585Z,21.13
2022-07-31T07:09:20.503Z,22.15
2022-07-31T07:12:00.516Z,24.70
2022-07-31T07:14:54.490Z,22.70
2022-07-31T07:17:48.504Z,22.70
2022-07-31T07:20:35.499Z,21.95
2022-07-31T07:23:08.609Z,21.88
2022-07-31T07:25:56.502Z,20.88
2022-07-31T07:28:31.079Z,21.48
2022-07-31T07:31:18.641Z,18.15
2022-07-31T07:33:52.086Z,20.35
2022-07-31T07:36:38.509Z,21.02
2022-07-31T07:39:18.526Z,21.38
2022-07-31T07:42:12.520Z,19.50
2022-07-31T07:44:59.525Z,19.38
2022-07-31T07:48:05.511Z,19.20
2022-07-31T07:50:39.522Z,17.33
2022-07-31T07:53:13.351Z,18.75
2022-07-31T07:56:00.538Z,18.63
2022-07-31T07:58:40.531Z,20.52
2022-07-31T08:01:27.571Z,20.70
2022-07-31T08:04:03.120Z,19.00
2022-07-31T08:06:49.575Z,16.17
2022-07-31T08:09:29.558Z,18.80
2022-07-31T08:12:23.562Z,18.38
2022-07-31T08:15:18.541Z,19.70
2022-07-31T08:18:05.574Z,19.70
2022-07-31T08:20:38.717Z,16.58
2022-07-31T08:23:25.536Z,19.13
2022-07-31T08:26:06.544Z,19.13
2022-07-31T08:29:00.617Z,16.23
2022-07-31T08:31:58.538Z,16.33
2022-07-31T08:34:45.559Z,19.30
2022-07-31T08:37:59.941Z,16.33
2022-07-31T08:40:23.533Z,17.27
2022-07-31T08:43:07.474Z,17.38
2022-07-31T08:46:00.549Z,16.77
2022-07-31T08:48:46.763Z,15.32
2022-07-31T08:51:30.616Z,14.38
2022-07-31T08:54:16.603Z,16.38
2022-07-31T08:56:58.611Z,17.25
2022-07-31T08:59:48.549Z,15.23
2022-07-31T09:02:28.643Z,15.57
2022-07-31T09:05:23.620Z,18.20
2022-07-31T09:08:12.157Z,17.10
2022-07-31T09:10:55.683Z,16.15
2022-07-31T09:13:42.611Z,17.23
2022-07-31T09:16:35.692Z,14.80
2022-07-31T09:19:53.569Z,15.98
2022-07-31T09:22:32.776Z,15.23
2022-07-31T09:25:27.592Z,14.40
2022-07-31T09:28:08.776Z,16.27
2022-07-31T09:31:01.574Z,15.00
2022-07-31T09:33:42.322Z,14.45
2022-07-31T09:36:31.592Z,14.98
2022-07-31T09:39:05.778Z,15.02
2022-07-31T09:42:01.822Z,15.68
2022-07-31T09:44:59.576Z,16.75
2022-07-31T09:47:46.623Z,15.65
2022-07-31T09:50:20.703Z,15.02
2022-07-31T09:53:07.603Z,14.23
2022-07-31T09:55:41.098Z,15.15
2022-07-31T09:58:28.613Z,14.55
2022-07-31T10:01:05.143Z,15.05
2022-07-31T10:03:56.615Z,15.48
2022-07-31T10:06:31.927Z,14.93
2022-07-31T10:09:19.585Z,14.93
2022-07-31T10:11:54.743Z,15.25
2022-07-31T10:14:46.615Z,13.50
2022-07-31T10:17:35.980Z,13.18
2022-07-31T10:20:32.616Z,14.75
2022-07-31T10:23:24.612Z,13.90
2022-07-31T10:26:12.625Z,14.00
2022-07-31T10:29:07.608Z,13.07
2022-07-31T10:31:57.633Z,15.32
2022-07-31T10:34:31.727Z,14.25
2022-07-31T10:37:50.618Z,14.10
2022-07-31T10:40:33.628Z,15.68
2022-07-31T10:43:20.615Z,14.93
2022-07-31T10:46:02.644Z,11.93
2022-07-31T10:48:59.682Z,12.23
2022-07-31T10:51:41.631Z,14.45
2022-07-31T10:54:35.622Z,14.00
2022-07-31T10:57:56.924Z,15.07
2022-07-31T11:00:36.616Z,14.27
2022-07-31T11:03:27.711Z,14.93
2022-07-31T11:06:07.683Z,13.70
2022-07-31T11:08:52.752Z,12.93
2022-07-31T11:11:39.688Z,13.02
2022-07-31T11:14:21.740Z,12.95
2022-07-31T11:17:03.032Z,12.23
2022-07-31T11:19:47.744Z,12.35
2022-07-31T11:22:31.935Z,10.68
2022-07-31T11:25:27.706Z,11.73
2022-07-31T11:28:25.688Z,13.07
2022-07-31T11:30:59.785Z,12.60
2022-07-31T11:33:52.715Z,11.52
2022-07-31T11:36:29.346Z,12.93
2022-07-31T11:39:19.681Z,13.60
2022-07-31T11:42:04.471Z,13.80
2022-07-31T11:44:51.690Z,13.45
2022-07-31T11:48:09.542Z,14.20
2022-07-31T11:50:38.543Z,10.30
2022-07-31T11:53:11.808Z,13.57
2022-07-31T11:56:04.710Z,11.82
2022-07-31T11:58:41.216Z,13.45
2022-07-31T12:01:33.693Z,17.70
2022-07-31T12:04:13.680Z,17.90
2022-07-31T12:07:11.691Z,12.50
2022-07-31T12:10:02.691Z,12.95
2022-07-31T12:12:37.176Z,12.80
2022-07-31T12:15:25.742Z,14.57
2022-07-31T12:18:07.898Z,13.88
2022-07-31T12:21:11.682Z,11.55
2022-07-31T12:23:53.212Z,13.35
2022-07-31T12:26:39.684Z,13.00
2022-07-31T12:29:17.820Z,11.18
2022-07-31T12:32:08.405Z,13.48
2022-07-31T12:34:45.529Z,14.18
2022-07-31T12:37:28.716Z,13.02
2022-07-31T12:40:15.744Z,14.07
2022-07-31T12:43:09.740Z,12.65
2022-07-31T12:45:58.709Z,16.08
2022-07-31T12:48:36.307Z,15.25
2022-07-31T12:51:45.545Z,14.43
2022-07-31T12:54:24.137Z,12.88
2022-07-31T12:57:10.710Z,12.75
2022-07-31T12:59:43.787Z,12.27
2022-07-31T13:02:30.758Z,12.38
2022-07-31T13:05:03.852Z,12.40
2022-07-31T13:07:50.769Z,13.77
2022-07-31T13:10:31.949Z,14.38
2022-07-31T13:13:18.764Z,13.63
2022-07-31T13:15:51.921Z,12.48
2022-07-31T13:18:39.788Z,12.05
2022-07-31T13:21:19.730Z,12.70
2022-07-31T13:24:06.713Z,12.88
2022-07-31T13:26:39.822Z,11.40
2022-07-31T13:29:33.724Z,11.73
2022-07-31T13:32:23.171Z,11.85
2022-07-31T13:35:26.697Z,12.90
2022-07-31T13:38:00.758Z,12.77
2022-07-31T13:40:59.518Z,12.60
2022-07-31T13:43:39.728Z,12.30
2022-07-31T13:46:39.858Z,13.23
2022-07-31T13:49:24.019Z,11.95
2022-07-31T13:52:04.142Z,12.95
2022-07-31T13:54:43.788Z,13.30
2022-07-31T13:57:23.822Z,14.55
2022-07-31T14:00:06.761Z,12.80
2022-07-31T14:02:47.815Z,12.38
2022-07-31T14:05:27.909Z,12.35
2022-07-31T14:08:32.930Z,13.88
2022-07-31T14:11:15.188Z,14.20
2022-07-31T14:14:10.757Z,12.60
2022-07-31T14:17:04.765Z,14.95
2022-07-31T14:20:00.754Z,13.73
2022-07-31T14:22:48.764Z,12.85
2022-07-31T14:25:21.869Z,13.27
2022-07-31T14:28:08.770Z,12.40
2022-07-31T14:30:46.473Z,14.07
2022-07-31T14:33:36.761Z,11.18
2022-07-31T14:36:10.852Z,14.65
2022-07-31T14:38:57.792Z,12.25
2022-07-31T14:41:38.766Z,13.27
2022-07-31T14:44:29.014Z,12.48
2022-07-31T14:47:03.102Z,11.90
2022-07-31T14:50:09.331Z,11.15
2022-07-31T14:52:44.895Z,11.10
2022-07-31T14:58:57.287Z,11.63
2022-07-31T15:01:50.755Z,13.60
2022-07-31T15:04:37.800Z,13.68
2022-07-31T15:07:34.297Z,14.00
2022-07-31T15:10:18.758Z,13.68
2022-07-31T15:12:51.914Z,11.85
2022-07-31T15:15:38.762Z,12.77
2022-07-31T15:18:11.925Z,13.50
2022-07-31T15:20:58.775Z,13.23
2022-07-31T15:23:35.717Z,13.32
2022-07-31T15:26:23.782Z,13.13
2022-07-31T15:28:56.844Z,12.85
2022-07-31T15:31:43.802Z,13.95
2022-07-31T15:34:23.803Z,13.02
2022-07-31T15:37:10.795Z,14.70
2022-07-31T15:40:02.880Z,13.40
2022-07-31T15:42:57.798Z,13.40
2022-07-31T15:45:44.814Z,13.32
2022-07-31T15:48:17.897Z,13.45
2022-07-31T15:51:04.785Z,14.88
2022-07-31T15:53:39.357Z,12.00
2022-07-31T15:56:25.801Z,12.80
2022-07-31T15:59:00.229Z,13.85
2022-07-31T16:01:46.785Z,14.20
2022-07-31T16:04:19.933Z,13.60
2022-07-31T16:08:32.162Z,14.35
2022-07-31T16:10:15.751Z,13.55
2022-07-31T16:13:12.861Z,13.07
2022-07-31T16:15:59.844Z,11.88
2022-07-31T16:18:32.922Z,14.52
2022-07-31T16:21:19.788Z,12.10
2022-07-31T16:23:59.830Z,12.27
2022-07-31T16:26:53.802Z,13.25
2022-07-31T16:29:59.487Z,13.27
2022-07-31T16:32:49.811Z,12.90
2022-07-31T16:35:22.937Z,12.10
2022-07-31T16:38:09.847Z,12.85
2022-07-31T16:40:42.966Z,14.30
2022-07-31T16:43:48.026Z,13.05
2022-07-31T16:46:22.967Z,13.52
2022-07-31T16:49:35.555Z,13.73
2022-07-31T16:52:09.827Z,13.32
2022-07-31T16:55:03.843Z,14.10
2022-07-31T16:57:50.856Z,12.60
2022-07-31T17:00:23.980Z,13.95
2022-07-31T17:04:02.132Z,13.90
2022-07-31T17:06:03.960Z,13.57
2022-07-31T17:08:50.894Z,12.45
2022-07-31T17:11:23.910Z,13.93
2022-07-31T17:14:10.857Z,13.75
2022-07-31T17:16:47.612Z,12.00
2022-07-31T17:19:45.324Z,12.70
2022-07-31T17:22:26.851Z,13.85
2022-07-31T17:25:20.868Z,15.45
2022-07-31T17:28:15.487Z,15.38
2022-07-31T17:31:08.856Z,13.45
2022-07-31T17:34:00.490Z,14.90
2022-07-31T17:36:35.959Z,14.98
2022-07-31T17:39:25.196Z,14.65
2022-07-31T17:42:01.983Z,15.70
2022-07-31T17:44:54.657Z,14.93
2022-07-31T17:47:36.867Z,16.25
2022-07-31T17:50:23.866Z,15.50
2022-07-31T17:52:56.936Z,13.95
2022-07-31T17:55:43.868Z,14.25
2022-07-31T17:58:16.935Z,15.57
2022-07-31T18:01:03.862Z,14.18
2022-07-31T18:03:36.959Z,15.13
2022-07-31T18:06:23.883Z,14.43
2022-07-31T18:09:03.871Z,16.00
2022-07-31T18:11:57.871Z,15.30
2022-07-31T18:14:45.879Z,15.60
2022-07-31T18:17:19.592Z,16.08
2022-07-31T18:20:05.867Z,16.33
2022-07-31T18:22:49.673Z,16.73
2022-07-31T18:25:36.870Z,14.45
2022-07-31T18:28:09.977Z,15.27
2022-07-31T18:30:56.877Z,15.60
2022-07-31T18:33:29.965Z,14.48
2022-07-31T18:36:17.877Z,16.60
2022-07-31T18:38:52.147Z,15.80
2022-07-31T18:41:42.736Z,15.18
2022-07-31T18:44:19.162Z,16.65
2022-07-31T18:47:05.900Z,17.50
2022-07-31T18:51:01.286Z,18.00
2022-07-31T18:52:38.957Z,19.00
2022-07-31T18:55:18.978Z,15.43
2022-07-31T18:57:59.128Z,17.27
2022-07-31T19:00:40.083Z,18.90
2022-07-31T19:03:19.889Z,17.92
2022-07-31T19:06:00.002Z,17.20
2022-07-31T19:08:39.902Z,18.58
2022-07-31T19:11:19.999Z,18.30
2022-07-31T19:13:59.888Z,18.00
2022-07-31T19:16:40.020Z,18.85
2022-07-31T19:19:20.928Z,17.58
2022-07-31T19:22:00.992Z,20.42
2022-07-31T19:24:40.897Z,19.10
2022-07-31T19:27:21.167Z,18.10
2022-07-31T19:30:16.016Z,18.45
2022-07-31T19:33:02.916Z,17.02
2022-07-31T19:35:58.624Z,17.00
2022-07-31T19:38:50.923Z,17.75
2022-07-31T19:41:30.915Z,18.92
2022-07-31T19:44:24.894Z,18.70
2022-07-31T19:47:18.935Z,19.90
2022-07-31T19:50:07.897Z,24.20
2022-07-31T19:52:47.930Z,24.67
2022-07-31T19:55:41.917Z,21.60
2022-07-31T19:58:35.937Z,19.70
2022-07-31T20:01:22.930Z,19.55
2022-07-31T20:03:57.813Z,17.25
2022-07-31T20:06:45.949Z,17.35
2022-07-31T20:09:25.928Z,18.58
2022-07-31T20:12:19.935Z,19.15
2022-07-31T20:15:13.951Z,19.15
2022-07-31T20:18:07.949Z,18.38
2022-07-31T20:21:02.980Z,18.13
2022-07-31T20:23:56.944Z,18.17
2022-07-31T20:26:43.968Z,19.45
2022-07-31T20:29:17.017Z,18.90
2022-07-31T20:32:04.232Z,18.27
2022-07-31T20:34:38.013Z,17.00
2022-07-31T20:37:24.981Z,17.42
2022-07-31T20:39:58.175Z,18.70
2022-07-31T20:42:44.954Z,18.05
2022-07-31T20:45:24.939Z,19.70
2022-07-31T20:48:14.035Z,19.00
2022-07-31T20:50:48.660Z,18.58
2022-07-31T20:53:36.969Z,18.15
2022-07-31T20:56:10.029Z,18.58
2022-07-31T20:58:56.994Z,18.08
2022-07-31T21:01:31.115Z,19.10
2022-07-31T21:04:18.064Z,20.58
2022-07-31T21:06:51.101Z,17.65
2022-07-31T21:09:39.036Z,17.08
2022-07-31T21:12:12.219Z,17.23
2022-07-31T21:14:58.955Z,19.38
2022-07-31T21:17:32.055Z,18.95
2022-07-31T21:20:18.964Z,19.98
2022-07-31T21:22:58.965Z,18.48
2022-07-31T21:25:52.972Z,20.13
2022-07-31T21:28:39.943Z,19.70
2022-07-31T21:31:13.340Z,17.75
2022-07-31T21:33:59.979Z,19.67
2022-07-31T21:36:33.051Z,19.40
2022-07-31T21:39:19.970Z,19.77
2022-07-31T21:41:59.981Z,19.27
2022-07-31T21:44:53.973Z,18.98
2022-07-31T21:47:53.987Z,19.63
2022-07-31T21:50:47.985Z,19.20
2022-07-31T21:53:34.979Z,19.23
2022-07-31T21:56:09.090Z,18.45
2022-07-31T21:58:55.974Z,18.25
2022-07-31T22:01:36.015Z,17.92
2022-07-31T22:04:29.956Z,17.60
2022-07-31T22:07:32.993Z,18.75
2022-07-31T22:10:32.993Z,19.35
2022-07-31T22:13:19.990Z,18.83
2022-07-31T22:15:59.869Z,17.30
2022-07-31T22:18:48.117Z,16.45
2022-07-31T22:21:21.182Z,17.30
2022-07-31T22:24:09.000Z,18.00
2022-07-31T22:27:09.123Z,18.00
2022-07-31T22:29:58.039Z,16.55
2022-07-31T22:32:31.068Z,16.80
2022-07-31T22:35:20.020Z,16.95
2022-07-31T22:37:59.997Z,16.77
2022-07-31T22:40:47.030Z,18.85
2022-07-31T22:44:12.247Z,19.40
2022-07-31T22:46:41.003Z,17.67
2022-07-31T22:49:35.077Z,18.02
2022-07-31T22:52:22.012Z,19.40
2022-07-31T22:54:56.094Z,19.60
2022-07-31T22:57:43.010Z,20.77
2022-07-31T23:00:27.033Z,20.27
2022-07-31T23:03:14.017Z,18.95
2022-07-31T23:06:28.214Z,17.70
2022-07-31T23:08:57.011Z,18.45
2022-07-31T23:11:38.038Z,17.98
2022-07-31T23:14:25.036Z,20.10
2022-07-31T23:17:05.035Z,20.33
2022-07-31T23:19:59.034Z,17.92
2022-07-31T23:22:46.059Z,18.02
2022-07-31T23:25:20.895Z,18.75
2022-07-31T23:28:08.043Z,18.92
2022-07-31T23:30:41.103Z,18.52
2022-07-31T23:33:28.038Z,18.08
2022-07-31T23:36:01.118Z,20.48
2022-07-31T23:38:49.031Z,19.92
2022-07-31T23:41:40.644Z,17.65
2022-07-31T23:44:27.035Z,19.20
2022-07-31T23:47:01.112Z,19.25
2022-07-31T23:49:50.033Z,20.40
2022-07-31T23:52:23.158Z,18.50
2022-07-31T23:55:10.041Z,18.55
2022-07-31T23:57:50.026Z,18.23
